createdAt,value
2022-08-11T00:01:24.708Z,2.70
2022-08-11T00:04:15.389Z,2.97
2022-08-11T00:07:06.936Z,2.85
2022-08-11T00:09:55.966Z,3.03
2022-08-11T00:12:45.339Z,2.70
2022-08-11T00:15:43.572Z,3.15
2022-08-11T00:18:41.248Z,2.83
2022-08-11T00:22:03.192Z,2.90
2022-08-11T00:24:53.944Z,2.47
2022-08-11T00:27:47.056Z,2.80
2022-08-11T00:30:41.175Z,2.95
2022-08-11T00:33:45.425Z,3.10
2022-08-11T00:36:45.609Z,3.03
2022-08-11T00:39:37.949Z,2.70
2022-08-11T00:42:44.968Z,2.80
2022-08-11T00:45:41.252Z,2.65
2022-08-11T00:48:37.874Z,2.60
2022-08-11T00:51:57.665Z,2.78
2022-08-11T00:55:47.243Z,2.83
2022-08-11T00:59:35.113Z,2.90
2022-08-11T01:02:43.136Z,3.05
2022-08-11T01:05:58.063Z,2.92
2022-08-11T01:09:17.956Z,2.80
2022-08-11T01:12:42.155Z,2.60
2022-08-11T01:16:10.889Z,3.00
2022-08-11T01:20:47.970Z,2.97
2022-08-11T01:23:50.608Z,2.65
2022-08-11T01:27:19.412Z,2.72
2022-08-11T01:31:12.877Z,2.78
2022-08-11T01:35:02.863Z,2.97
2022-08-11T01:38:29.064Z,2.95
2022-08-11T01:41:48.339Z,2.70
2022-08-11T01:45:09.120Z,2.60
2022-08-11T01:48:08.339Z,2.85
2022-08-11T01:51:19.127Z,2.70
2022-08-11T01:54:19.201Z,2.35
2022-08-11T01:57:28.193Z,3.13
2022-08-11T02:00:20.548Z,2.90
2022-08-11T02:03:18.171Z,2.70
2022-08-11T02:06:39.009Z,2.88
2022-08-11T02:09:49.907Z,2.63
2022-08-11T02:12:52.768Z,2.78
2022-08-11T02:15:44.982Z,3.05
2022-08-11T02:18:52.658Z,3.03
2022-08-11T02:22:08.334Z,3.00
2022-08-11T02:25:08.197Z,3.00
2022-08-11T02:28:04.904Z,2.70
2022-08-11T02:32:14.699Z,2.92
2022-08-11T02:34:43.912Z,2.97
2022-08-11T02:38:07.145Z,3.10
2022-08-11T02:41:29.549Z,2.70
2022-08-11T02:44:32.648Z,2.78
2022-08-11T02:47:39.243Z,2.97
2022-08-11T02:50:29.399Z,3.38
2022-08-11T02:53:25.582Z,3.15
2022-08-11T02:56:25.576Z,3.20
2022-08-11T02:59:50.143Z,3.00
2022-08-11T03:03:01.021Z,3.08
2022-08-11T03:06:08.904Z,3.00
2022-08-11T03:09:06.115Z,3.05
2022-08-11T03:12:24.871Z,2.97
2022-08-11T03:15:36.508Z,2.90
2022-08-11T03:18:30.853Z,2.53
2022-08-11T03:22:03.269Z,2.80
2022-08-11T03:24:49.605Z,3.13
2022-08-11T03:27:52.323Z,2.80
2022-08-11T03:30:49.980Z,3.03
2022-08-11T03:34:04.136Z,2.85
2022-08-11T03:37:45.472Z,2.90
2022-08-11T03:41:54.725Z,2.67
2022-08-11T03:44:49.499Z,2.90
2022-08-11T03:47:55.636Z,2.88
2022-08-11T03:51:03.920Z,2.80
2022-08-11T03:54:11.578Z,2.67
2022-08-11T03:57:53.793Z,3.25
2022-08-11T04:01:34.942Z,2.90
2022-08-11T04:05:24.789Z,2.70
2022-08-11T04:09:09.566Z,3.00
2022-08-11T04:12:42.062Z,2.97
2022-08-11T04:16:12.070Z,3.05
2022-08-11T04:19:47.213Z,2.90
2022-08-11T04:23:08.797Z,3.47
2022-08-11T04:26:38.383Z,3.10
2022-08-11T04:30:03.345Z,2.85
2022-08-11T04:33:36.773Z,2.97
2022-08-11T04:37:12.322Z,3.10
2022-08-11T04:40:38.897Z,2.80
2022-08-11T04:44:27.863Z,3.50
2022-08-11T04:48:20.233Z,3.30
2022-08-11T04:51:58.178Z,2.50
2022-08-11T04:55:26.681Z,3.40
2022-08-11T04:58:36.691Z,3.00
2022-08-11T05:01:42.562Z,2.88
2022-08-11T05:05:14.635Z,3.10
2022-08-11T05:09:03.987Z,2.97
2022-08-11T05:12:31.215Z,2.60
2022-08-11T05:15:58.082Z,3.00
2022-08-11T05:19:08.431Z,3.25
2022-08-11T05:22:16.429Z,3.03
2022-08-11T05:26:44.641Z,3.28
2022-08-11T05:29:19.575Z,3.15
2022-08-11T05:32:26.813Z,3.17
2022-08-11T05:35:59.839Z,3.00
2022-08-11T05:38:44.772Z,3.22
2022-08-11T05:41:51.273Z,3.03
2022-08-11T05:44:58.552Z,3.35
2022-08-11T05:48:08.689Z,2.85
2022-08-11T05:51:16.820Z,3.10
2022-08-11T05:54:28.748Z,3.08
2022-08-11T05:57:48.316Z,3.42
2022-08-11T06:00:42.838Z,2.70
2022-08-11T06:03:32.409Z,3.20
2022-08-11T06:06:19.597Z,2.80
2022-08-11T06:09:09.007Z,3.13
2022-08-11T06:12:01.413Z,2.83
2022-08-11T06:14:55.734Z,3.05
2022-08-11T06:17:47.871Z,2.90
2022-08-11T06:20:47.163Z,3.00
2022-08-11T06:23:36.277Z,2.78
2022-08-11T06:26:23.876Z,2.88
2022-08-11T06:29:12.625Z,3.55
2022-08-11T06:32:05.446Z,3.13
2022-08-11T06:35:06.317Z,3.38
2022-08-11T06:38:07.620Z,3.40
2022-08-11T06:41:16.186Z,3.25
2022-08-11T06:44:23.058Z,3.35
2022-08-11T06:47:14.627Z,2.90
2022-08-11T06:50:20.595Z,3.08
2022-08-11T06:53:10.691Z,3.50
2022-08-11T06:56:17.967Z,3.20
2022-08-11T06:59:23.166Z,2.90
2022-08-11T07:02:21.211Z,3.33
2022-08-11T07:05:14.159Z,2.92
2022-08-11T07:08:55.394Z,2.95
2022-08-11T07:12:21.554Z,3.08
2022-08-11T07:16:12.751Z,2.92
2022-08-11T07:18:58.015Z,3.30
2022-08-11T07:22:04.815Z,3.28
2022-08-11T07:25:20.436Z,2.90
2022-08-11T07:28:36.361Z,3.20
2022-08-11T07:31:31.900Z,3.17
2022-08-11T07:34:24.620Z,3.42
2022-08-11T07:37:20.580Z,3.50
2022-08-11T07:40:09.990Z,3.58
2022-08-11T07:42:58.657Z,2.97
2022-08-11T07:46:05.324Z,3.08
2022-08-11T07:49:11.793Z,3.38
2022-08-11T07:52:18.505Z,3.42
2022-08-11T07:55:10.319Z,3.38
2022-08-11T07:58:19.798Z,3.05
2022-08-11T08:01:25.628Z,2.95
2022-08-11T08:04:33.980Z,3.13
2022-08-11T08:07:43.382Z,3.33
2022-08-11T08:10:50.160Z,3.30
2022-08-11T08:13:59.318Z,3.30
2022-08-11T08:17:04.285Z,2.90
2022-08-11T08:19:51.664Z,3.00
2022-08-11T08:22:43.927Z,3.65
2022-08-11T08:25:37.076Z,3.45
2022-08-11T08:28:26.870Z,3.30
2022-08-11T08:31:16.252Z,3.20
2022-08-11T08:34:03.975Z,3.00
2022-08-11T08:36:53.086Z,3.25
2022-08-11T08:39:42.114Z,3.22
2022-08-11T08:42:32.565Z,3.10
2022-08-11T08:45:20.301Z,3.33
2022-08-11T08:48:13.410Z,3.10
2022-08-11T08:51:24.449Z,3.45
2022-08-11T08:54:18.263Z,3.00
2022-08-11T08:57:09.554Z,3.05
2022-08-11T08:59:58.201Z,3.40
2022-08-11T09:02:46.692Z,3.05
2022-08-11T09:05:34.295Z,2.97
2022-08-11T09:08:23.451Z,3.20
2022-08-11T09:11:30.072Z,3.13
2022-08-11T09:14:20.387Z,2.95
2022-08-11T09:17:07.585Z,2.75
2022-08-11T09:20:01.568Z,2.85
2022-08-11T09:26:34.503Z,3.08
2022-08-11T09:29:23.472Z,2.70
2022-08-11T09:32:10.808Z,2.97
2022-08-11T09:34:59.051Z,2.70
2022-08-11T09:38:04.100Z,2.83
2022-08-11T09:40:56.213Z,3.08
2022-08-11T09:44:05.010Z,2.85
2022-08-11T09:46:55.791Z,2.85
2022-08-11T09:49:46.281Z,3.15
2022-08-11T09:52:37.988Z,2.90
2022-08-11T09:55:26.453Z,2.67
2022-08-11T09:58:41.844Z,2.60
2022-08-11T10:01:30.135Z,2.17
2022-08-11T10:04:21.998Z,2.70
2022-08-11T10:07:10.877Z,2.88
2022-08-11T10:10:02.950Z,2.70
2022-08-11T10:12:56.094Z,2.80
2022-08-11T10:16:00.082Z,2.95
2022-08-11T10:18:53.732Z,2.60
2022-08-11T10:22:05.550Z,3.20
2022-08-11T10:25:11.719Z,2.65
2022-08-11T10:28:29.086Z,2.90
2022-08-11T10:31:24.972Z,2.42
2022-08-11T10:34:17.856Z,2.63
2022-08-11T10:37:15.016Z,3.20
2022-08-11T10:40:03.502Z,2.72
2022-08-11T10:43:07.147Z,2.97
2022-08-11T10:46:12.235Z,3.28
2022-08-11T10:49:00.364Z,2.75
2022-08-11T10:52:05.785Z,3.28
2022-08-11T10:55:12.559Z,2.90
2022-08-11T10:58:18.001Z,3.08
2022-08-11T11:01:06.137Z,3.05
2022-08-11T11:03:58.797Z,2.90
2022-08-11T11:06:53.913Z,2.88
2022-08-11T11:09:47.751Z,3.03
2022-08-11T11:12:58.883Z,2.85
2022-08-11T11:16:05.672Z,2.92
2022-08-11T11:19:00.680Z,3.40
2022-08-11T11:21:54.041Z,3.00
2022-08-11T11:24:54.357Z,2.90
2022-08-11T11:28:02.447Z,3.17
2022-08-11T11:31:07.421Z,2.90
2022-08-11T11:34:15.268Z,3.13
2022-08-11T11:37:03.388Z,3.47
2022-08-11T11:39:51.180Z,3.20
2022-08-11T11:42:39.529Z,3.08
2022-08-11T11:45:28.664Z,3.00
2022-08-11T11:48:16.398Z,2.97
2022-08-11T11:51:04.054Z,3.15
2022-08-11T11:53:52.884Z,2.80
2022-08-11T11:56:40.921Z,3.17
2022-08-11T11:59:47.279Z,2.80
2022-08-11T12:02:37.646Z,3.05
2022-08-11T12:05:25.574Z,3.05
2022-08-11T12:08:16.269Z,2.97
2022-08-11T12:11:23.271Z,3.03
2022-08-11T12:14:12.121Z,3.10
2022-08-11T12:17:00.372Z,3.22
2022-08-11T12:19:49.173Z,3.30
2022-08-11T12:22:54.925Z,3.72
2022-08-11T12:26:25.326Z,3.30
2022-08-11T12:29:12.617Z,3.20
2022-08-11T12:32:00.599Z,3.25
2022-08-11T12:34:50.173Z,3.10
2022-08-11T12:37:42.175Z,3.20
2022-08-11T12:41:16.345Z,3.40
2022-08-11T12:44:12.505Z,3.00
2022-08-11T12:47:03.114Z,2.97
2022-08-11T12:50:22.721Z,3.25
2022-08-11T12:53:13.233Z,2.97
2022-08-11T12:56:23.784Z,3.17
2022-08-11T12:59:29.172Z,3.05
2022-08-11T13:02:40.002Z,2.95
2022-08-11T13:05:33.135Z,2.70
2022-08-11T13:08:30.427Z,3.17
2022-08-11T13:11:56.041Z,2.78
2022-08-11T13:14:44.559Z,3.08
2022-08-11T13:17:44.165Z,3.13
2022-08-11T13:20:33.684Z,3.28
2022-08-11T13:23:21.488Z,2.88
2022-08-11T13:26:09.480Z,2.75
2022-08-11T13:28:56.883Z,3.20
2022-08-11T13:31:44.629Z,3.00
2022-08-11T13:34:32.439Z,2.70
2022-08-11T13:38:18.712Z,3.03
2022-08-11T13:40:45.733Z,2.70
2022-08-11T13:43:39.544Z,2.90
2022-08-11T13:46:29.052Z,2.88
2022-08-11T13:49:18.875Z,2.50
2022-08-11T13:52:08.603Z,2.38
2022-08-11T13:54:58.432Z,2.60
2022-08-11T13:58:08.234Z,3.20
2022-08-11T14:00:54.728Z,2.65
2022-08-11T14:04:29.815Z,3.22
2022-08-11T14:07:00.188Z,2.80
2022-08-11T14:09:55.483Z,2.53
2022-08-11T14:13:12.853Z,2.65
2022-08-11T14:16:07.297Z,2.40
2022-08-11T14:19:01.524Z,2.60
2022-08-11T14:22:08.858Z,2.97
2022-08-11T14:24:57.035Z,2.70
2022-08-11T14:28:31.985Z,2.80
2022-08-11T14:31:01.582Z,2.85
2022-08-11T14:34:00.236Z,2.58
2022-08-11T14:36:54.148Z,2.65
2022-08-11T14:39:46.420Z,2.63
2022-08-11T14:42:51.199Z,2.90
2022-08-11T14:45:59.120Z,2.55
2022-08-11T14:48:46.997Z,2.75
2022-08-11T14:51:35.847Z,2.65
2022-08-11T14:54:43.598Z,2.70
2022-08-11T14:57:55.123Z,2.60
2022-08-11T15:00:43.861Z,2.78
2022-08-11T15:03:33.798Z,2.78
2022-08-11T15:06:21.668Z,2.40
2022-08-11T15:09:09.532Z,3.00
2022-08-11T15:12:32.641Z,2.25
2022-08-11T15:15:39.545Z,2.53
2022-08-11T15:18:28.444Z,2.50
2022-08-11T15:21:33.183Z,2.70
2022-08-11T15:24:20.320Z,2.33
2022-08-11T15:27:31.725Z,2.70
2022-08-11T15:30:36.304Z,2.67
2022-08-11T15:33:45.406Z,2.50
2022-08-11T15:36:52.816Z,2.63
2022-08-11T15:40:02.729Z,2.40
2022-08-11T15:43:17.294Z,2.55
2022-08-11T15:46:11.217Z,2.42
2022-08-11T15:49:02.590Z,2.72
2022-08-11T15:51:58.428Z,2.75
2022-08-11T15:54:50.342Z,2.55
2022-08-11T15:57:56.657Z,2.33
2022-08-11T16:01:08.614Z,2.70
2022-08-11T16:04:14.096Z,2.60
2022-08-11T16:07:06.899Z,2.75
2022-08-11T16:10:01.398Z,2.70
2022-08-11T16:13:16.607Z,2.70
2022-08-11T16:16:15.331Z,2.50
2022-08-11T16:19:05.705Z,2.58
2022-08-11T16:21:54.588Z,2.47
2022-08-11T16:27:06.892Z,2.60
2022-08-11T16:27:58.901Z,2.72
2022-08-11T16:30:47.560Z,2.40
2022-08-11T16:33:50.102Z,2.63
2022-08-11T16:36:58.177Z,2.25
2022-08-11T16:39:48.362Z,2.67
2022-08-11T16:43:04.634Z,2.50
2022-08-11T16:46:17.240Z,2.30
2022-08-11T16:49:07.770Z,2.50
2022-08-11T16:51:56.462Z,2.80
2022-08-11T16:54:44.651Z,2.60
2022-08-11T16:57:51.913Z,2.58
2022-08-11T17:00:40.885Z,2.45
2022-08-11T17:03:45.664Z,2.38
2022-08-11T17:06:52.842Z,2.47
2022-08-11T17:09:58.852Z,2.50
2022-08-11T17:13:09.970Z,2.45
2022-08-11T17:16:09.520Z,2.60
2022-08-11T17:19:02.325Z,2.40
2022-08-11T17:22:09.711Z,2.65
2022-08-11T17:25:00.487Z,2.60
2022-08-11T17:27:50.006Z,2.40
2022-08-11T17:30:56.457Z,2.30
2022-08-11T17:34:00.726Z,2.38
2022-08-11T17:36:51.332Z,2.50
2022-08-11T17:39:39.686Z,2.28
2022-08-11T17:42:48.751Z,2.42
2022-08-11T17:45:53.744Z,2.38
2022-08-11T17:48:47.825Z,2.05
2022-08-11T17:51:54.187Z,2.35
2022-08-11T17:55:00.171Z,2.33
2022-08-11T17:58:08.363Z,2.42
2022-08-11T18:00:57.561Z,2.58
2022-08-11T18:03:57.587Z,2.20
2022-08-11T18:06:48.332Z,2.30
2022-08-11T18:09:53.426Z,2.40
2022-08-11T18:12:58.553Z,2.25
2022-08-11T18:16:05.150Z,2.30
2022-08-11T18:19:09.352Z,2.80
2022-08-11T18:22:19.987Z,2.13
2022-08-11T18:25:29.087Z,2.50
2022-08-11T18:28:43.037Z,2.47
2022-08-11T18:31:53.001Z,2.40
2022-08-11T18:35:01.142Z,2.28
2022-08-11T18:38:08.805Z,2.42
2022-08-11T18:41:14.759Z,2.60
2022-08-11T18:44:25.168Z,2.50
2022-08-11T18:47:34.029Z,2.63
2022-08-11T18:50:41.555Z,2.55
2022-08-11T18:53:56.075Z,2.80
2022-08-11T18:57:05.648Z,2.30
2022-08-11T19:00:12.268Z,2.22
2022-08-11T19:03:20.551Z,2.65
2022-08-11T19:06:38.345Z,2.40
2022-08-11T19:09:47.591Z,2.47
2022-08-11T19:12:58.095Z,2.28
2022-08-11T19:16:05.599Z,2.22
2022-08-11T19:19:13.637Z,2.60
2022-08-11T19:22:22.184Z,2.63
2022-08-11T19:25:30.275Z,2.50
2022-08-11T19:28:36.550Z,2.60
2022-08-11T19:31:45.000Z,2.35
2022-08-11T19:34:51.882Z,2.47
2022-08-11T19:37:58.466Z,2.40
2022-08-11T19:41:04.029Z,2.70
2022-08-11T19:44:13.514Z,2.55
2022-08-11T19:47:21.330Z,2.50
2022-08-11T19:50:27.969Z,2.42
2022-08-11T19:53:33.033Z,2.72
2022-08-11T19:56:37.972Z,2.65
2022-08-11T19:59:43.429Z,2.97
2022-08-11T20:02:48.459Z,2.40
2022-08-11T20:05:59.622Z,2.50
2022-08-11T20:09:08.090Z,2.58
2022-08-11T20:12:15.909Z,2.58
2022-08-11T20:15:24.698Z,2.38
2022-08-11T20:18:31.603Z,2.38
2022-08-11T20:21:37.562Z,2.63
2022-08-11T20:24:43.405Z,2.60
2022-08-11T20:27:51.288Z,2.75
2022-08-11T20:31:02.872Z,2.80
2022-08-11T20:34:08.040Z,2.55
2022-08-11T20:37:17.035Z,2.70
2022-08-11T20:40:23.990Z,2.50
2022-08-11T20:44:06.610Z,3.05
2022-08-11T20:46:57.421Z,2.35
2022-08-11T20:50:05.922Z,2.20
2022-08-11T20:53:12.903Z,2.83
2022-08-11T20:56:19.505Z,2.60
2022-08-11T20:59:26.178Z,2.70
2022-08-11T21:02:32.351Z,2.72
2022-08-11T21:09:03.733Z,3.00
2022-08-11T21:12:14.315Z,3.10
2022-08-11T21:15:47.492Z,3.25
2022-08-11T21:18:49.836Z,3.22
2022-08-11T21:21:57.594Z,3.55
2022-08-11T21:25:04.726Z,3.63
2022-08-11T21:28:10.908Z,3.95
2022-08-11T21:31:16.985Z,3.47
2022-08-11T21:34:23.110Z,3.60
2022-08-11T21:37:31.050Z,3.25
2022-08-11T21:40:39.095Z,3.53
2022-08-11T21:43:46.258Z,3.65
2022-08-11T21:46:51.783Z,3.03
2022-08-11T21:49:58.911Z,3.17
2022-08-11T21:53:03.949Z,3.35
2022-08-11T21:56:11.716Z,2.92
2022-08-11T21:59:17.449Z,3.20
2022-08-11T22:02:22.378Z,3.63
2022-08-11T22:05:28.386Z,3.25
2022-08-11T22:08:34.186Z,3.33
2022-08-11T22:11:40.680Z,3.00
2022-08-11T22:14:45.551Z,2.95
2022-08-11T22:17:51.146Z,3.22
2022-08-11T22:20:58.660Z,3.50
2022-08-11T22:24:07.859Z,2.95
2022-08-11T22:27:15.637Z,3.03
2022-08-11T22:30:20.121Z,2.90
2022-08-11T22:33:28.868Z,3.33
2022-08-11T22:36:34.087Z,3.08
2022-08-11T22:39:40.153Z,2.65
2022-08-11T22:42:46.716Z,3.10
2022-08-11T22:45:52.569Z,3.10
2022-08-11T22:48:58.123Z,3.20
2022-08-11T22:52:03.586Z,3.00
2022-08-11T22:55:10.334Z,3.03
2022-08-11T22:58:17.318Z,2.88
2022-08-11T23:01:21.848Z,2.78
2022-08-11T23:04:26.651Z,2.78
2022-08-11T23:07:50.978Z,3.20
2022-08-11T23:10:57.916Z,2.70
2022-08-11T23:14:04.512Z,2.60
2022-08-11T23:17:10.022Z,3.03
2022-08-11T23:20:32.237Z,2.75
2022-08-11T23:23:40.977Z,2.95
2022-08-11T23:26:48.540Z,2.83
2022-08-11T23:29:55.977Z,2.83
2022-08-11T23:33:04.374Z,2.80
2022-08-11T23:36:10.948Z,2.83
2022-08-11T23:39:36.196Z,2.83
2022-08-11T23:42:40.725Z,3.20
2022-08-11T23:45:47.462Z,2.63
2022-08-11T23:48:52.955Z,3.10
2022-08-11T23:51:58.903Z,3.00
2022-08-11T23:55:04.525Z,3.30
2022-08-11T23:58:10.103Z,2.63
